Map

Track Data

SID SEASON NUMBER BASIN SUBBASIN NAME ISO_TIME NATURE LAT LON WMO_WIND WMO_PRES WMO_AGENCY TRACK_TYPE DIST2LAND LANDFALL IFLAG USA_AGENCY USA_ATCF_ID USA_LAT USA_LON USA_RECORD USA_STATUS USA_WIND USA_PRES USA_SSHS USA_R34_NE USA_R34_SE USA_R34_SW USA_R34_NW USA_R50_NE USA_R50_SE USA_R50_SW USA_R50_NW USA_R64_NE USA_R64_SE USA_R64_SW USA_R64_NW USA_POCI USA_ROCI USA_RMW USA_EYE TOKYO_LAT TOKYO_LON TOKYO_GRADE TOKYO_WIND TOKYO_PRES TOKYO_R50_DIR TOKYO_R50_LONG TOKYO_R50_SHORT TOKYO_R30_DIR TOKYO_R30_LONG TOKYO_R30_SHORT TOKYO_LAND CMA_LAT CMA_LON CMA_CAT CMA_WIND CMA_PRES HKO_LAT HKO_LON HKO_CAT HKO_WIND HKO_PRES NEWDELHI_LAT NEWDELHI_LON NEWDELHI_GRADE NEWDELHI_WIND NEWDELHI_PRES NEWDELHI_CI NEWDELHI_DP NEWDELHI_POCI REUNION_LAT REUNION_LON REUNION_TYPE REUNION_WIND REUNION_PRES REUNION_TNUM REUNION_CI REUNION_RMW REUNION_R34_NE REUNION_R34_SE REUNION_R34_SW REUNION_R34_NW REUNION_R50_NE REUNION_R50_SE REUNION_R50_SW REUNION_R50_NW REUNION_R64_NE REUNION_R64_SE REUNION_R64_SW REUNION_R64_NW BOM_LAT BOM_LON BOM_TYPE BOM_WIND BOM_PRES BOM_TNUM BOM_CI BOM_RMW BOM_R34_NE BOM_R34_SE BOM_R34_SW BOM_R34_NW BOM_R50_NE BOM_R50_SE BOM_R50_SW BOM_R50_NW BOM_R64_NE BOM_R64_SE BOM_R64_SW BOM_R64_NW BOM_ROCI BOM_POCI BOM_EYE BOM_POS_METHOD BOM_PRES_METHOD NADI_LAT NADI_LON NADI_CAT NADI_WIND NADI_PRES WELLINGTON_LAT WELLINGTON_LON WELLINGTON_WIND WELLINGTON_PRES DS824_LAT DS824_LON DS824_STAGE DS824_WIND DS824_PRES TD9636_LAT TD9636_LON TD9636_STAGE TD9636_WIND TD9636_PRES TD9635_LAT TD9635_LON TD9635_WIND TD9635_PRES TD9635_ROCI NEUMANN_LAT NEUMANN_LON NEUMANN_CLASS NEUMANN_WIND NEUMANN_PRES MLC_LAT MLC_LON MLC_CLASS MLC_WIND MLC_PRES USA_GUST BOM_GUST BOM_GUST_PER REUNION_GUST REUNION_GUST_PER USA_SEAHGT USA_SEARAD_NE USA_SEARAD_SE USA_SEARAD_SW USA_SEARAD_NW STORM_SPEED STORM_DIR
1947070S16119 1947 23 SI WA NOT_NAMED 1947-03-10 23:00:00 NR -15.8000 118.800 main 399 394 __________O___ -1 -15.8000 118.800 7 10 0
1947070S16119 1947 23 SI WA NOT_NAMED 1947-03-11 00:00:00 TS -15.9700 118.778 main 390 390 O________OP___ jtwc_sh SH211947 -16.0000 118.800 -1 -16.0000 118.800 TC -15.9400 118.756 7 10 202
1947070S16119 1947 23 SI WA NOT_NAMED 1947-03-11 01:00:00 TS -16.0997 118.668 995 bom main 396 396 P_____O__PP___ SH211947 -16.1398 118.753 -1 -16.0000 118.200 995 -16.1398 118.753 TC -16.0794 118.711 7 9 214
1947070S16119 1947 23 SI WA NOT_NAMED 1947-03-11 03:00:00 TS -16.3356 118.524 main 409 394 P_____P__PP___ SH211947 -16.4150 118.658 -1 -16.0610 117.930 -16.4150 118.658 TC -16.3537 118.620 7 10 226
1947070S16119 1947 23 SI WA NOT_NAMED 1947-03-11 06:00:00 TS -16.6895 118.036 main 397 387 O____OP__OP___ jtwc_sh SH211947 -16.8000 118.500 -1 -17.2000 114.100 99 9.90000 -16.1511 117.524 -16.8000 118.500 TC -16.7447 118.476 7 11 237
1947070S16119 1947 23 SI WA NOT_NAMED 1947-03-11 09:00:00 TS -16.9228 117.571 main 391 385 P____PP__PP___ SH211947 -17.1300 118.315 -1 -17.1164 114.006 99 -16.2383 117.120 -17.1300 118.315 TC -17.0961 118.317 7 10 244
1947070S16119 1947 23 SI WA NOT_NAMED 1947-03-11 11:00:00 TS -17.0578 117.233 main 381 381 P____PP__PO___ SH211947 -17.3166 118.175 -1 -17.0628 113.943 99 -16.2941 116.851 -17.3166 118.175 TC -17.3000 118.200 7 12 251
1947070S16119 1947 23 SI WA NOT_NAMED 1947-03-11 12:00:00 TS -17.1099 116.993 main 386 379 O____PP__OP___ jtwc_sh SH211947 -17.4000 118.100 -1 -17.0371 113.910 99 -16.3212 116.716 -17.4000 118.100 TC -17.3911 118.137 7 7 247
1947070S16119 1947 23 SI WA NOT_NAMED 1947-03-11 15:00:00 TS -17.2496 116.761 main 380 358 P____PP__PP___ SH211947 -17.6299 117.880 -1 -16.9667 113.807 99 -16.3986 116.315 -17.6299 117.880 TC -17.6228 117.923 7 5 243
1947070S16119 1947 23 SI WA NOT_NAMED 1947-03-11 18:00:00 TS -17.3557 116.493 main 358 358 O____PP__OP___ jtwc_sh SH211947 -17.8000 117.600 -1 -16.9094 113.696 99 -16.4692 115.916 -17.8000 117.600 TC -17.7998 117.651 7 6 252
1947070S16119 1947 23 SI WA NOT_NAMED 1947-03-11 21:00:00 TS -17.4326 116.179 main 361 352 P____PP__PP___ SH211947 -17.9148 117.252 -1 -16.8697 113.573 99 -16.5316 115.521 -17.9148 117.252 TC -17.9320 117.296 7 7 258
1947070S16119 1947 23 SI WA NOT_NAMED 1947-03-11 23:00:00 TS -17.4734 115.934 main 356 356 P____PP__PO___ SH211947 -17.9718 116.964 -1 -16.8552 113.482 99 -16.5681 115.259 -17.9718 116.964 TC -18.0000 117.000 7 8 267
1947070S16119 1947 23 SI WA NOT_NAMED 1947-03-12 00:00:00 TS -17.4524 115.767 main 359 359 O____PP__OP___ jtwc_sh SH211947 -18.0000 116.800 -1 -16.8520 113.434 99 -16.5846 115.129 -18.0000 116.800 TC -18.0384 116.839 7 10 276
1947070S16119 1947 23 SI WA NOT_NAMED 1947-03-12 01:00:00 TS -17.4376 115.600 970 bom main 376 376 P____PO__PP___ SH211947 -18.0385 116.631 -1 -16.8517 113.384 99 -16.6000 115.000 970 4 -18.0385 116.631 TC -18.0723 116.665 7 9 271
1947070S16119 1947 23 SI WA NOT_NAMED 1947-03-12 03:00:00 TS -17.4472 115.279 main 387 380 P____PP__PP___ SH211947 -18.1148 116.253 -1 -16.8606 113.278 99 -16.6273 114.743 -18.1148 116.253 TC -18.1277 116.282 7 9 268
1947070S16119 1947 23 SI WA NOT_NAMED 1947-03-12 06:00:00 TS -17.4690 114.774 main 400 400 O____OP__OP___ jtwc_sh SH211947 -18.2000 115.600 -1 -16.9000 113.100 99 9.90000 -16.6621 114.360 -18.2000 115.600 TC -18.1812 115.632 7 10 267
1947070S16119 1947 23 SI WA NOT_NAMED 1947-03-12 09:00:00 TS -17.5037 114.255 main 428 428 P____PP__PP___ SH211947 -18.2224 114.880 -1 -16.9726 112.900 99 -16.6936 113.982 -18.2224 114.880 TC -18.2022 114.910 7 10 267
1947070S16119 1947 23 SI WA NOT_NAMED 1947-03-12 11:00:00 TS -17.5185 113.890 main 450 450 P____PP__PO___ SH211947 -18.2108 114.364 -1 -17.0371 112.756 99 -16.7151 113.732 -18.2108 114.364 TC -18.2000 114.400 7 11 274
1947070S16119 1947 23 SI WA NOT_NAMED 1947-03-12 12:00:00 TS -17.4630 113.669 main 462 462 O____PP__OP___ jtwc_sh SH211947 -18.2000 114.100 -1 -17.0735 112.682 99 -16.7265 113.607 -18.2000 114.100 TC -18.1945 114.139 7 11 278
1947070S16119 1947 23 SI WA NOT_NAMED 1947-03-12 15:00:00 TS -17.4161 113.110 main 507 507 P____PP__PP___ SH211947 -18.1556 113.302 -1 -17.1961 112.454 99 -16.7656 113.234 -18.1556 113.302 TC -18.1625 113.334 7 10 278
1947070S16119 1947 23 SI WA NOT_NAMED 1947-03-12 18:00:00 TS -17.3271 112.604 main 535 535 O____PP__OP___ jtwc_sh SH211947 -18.1000 112.500 -1 -17.3335 112.222 99 -16.8154 112.863 -18.1000 112.500 TC -18.1116 112.507 7 9 282
1947070S16119 1947 23 SI WA NOT_NAMED 1947-03-12 21:00:00 TS -17.2306 112.227 main 558 558 _____PP___P___ SH211947 -1 -17.4793 111.993 99 -16.8807 112.493 TC -18.0474 111.665 7 7 280
1947070S16119 1947 23 SI WA NOT_NAMED 1947-03-12 23:00:00 TS -17.2265 112.029 main 565 565 _____PP___O___ SH211947 -1 -17.5778 111.847 99 -16.9352 112.247 TC -18.0000 111.100 7 4 279
1947070S16119 1947 23 SI WA NOT_NAMED 1947-03-13 00:00:00 TS -17.1976 112.000 main 565 565 _____PP_______ -1 -17.6267 111.776 99 -16.9662 112.123 7 4 267
1947070S16119 1947 23 SI WA NOT_NAMED 1947-03-13 01:00:00 TS -17.2345 111.894 970 bom main 569 563 _____PO_______ -1 -17.6750 111.707 99 -17.0000 112.000 970 7 6 250
1947070S16119 1947 23 SI WA NOT_NAMED 1947-03-13 03:00:00 TS -17.3077 111.683 main 568 562 _____PP_______ -1 -17.7691 111.575 99 -17.0644 111.750 7 6 249
1947070S16119 1947 23 SI WA NOT_NAMED 1947-03-13 06:00:00 TS -17.4233 111.374 main 572 567 _____OP_______ -1 -17.9000 111.400 99 9.90000 -17.1754 111.374 7 6 248
1947070S16119 1947 23 SI WA NOT_NAMED 1947-03-13 09:00:00 TS -17.5458 111.075 main 578 568 _____PP_______ -1 -18.0143 111.255 99 -17.3054 110.998 7 6 246
1947070S16119 1947 23 SI WA NOT_NAMED 1947-03-13 12:00:00 TS -17.6769 110.786 main 576 576 _____PP_______ -1 -18.1128 111.137 99 -17.4563 110.622 6 243
1947070S16119 1947 23 SI WA NOT_NAMED 1947-03-13 15:00:00 TS -17.8190 110.505 main 586 582 _____PP_______ -1 -18.1979 111.044 99 -17.6301 110.247 6 241
1947070S16119 1947 23 SI WA NOT_NAMED 1947-03-13 18:00:00 TS -17.9744 110.230 main 589 588 _____PP_______ -1 -18.2717 110.971 99 -17.8288 109.872 6 238
1947070S16119 1947 23 SI WA NOT_NAMED 1947-03-13 21:00:00 TS -18.1455 109.962 main 595 587 _____PP_______ -1 -18.3366 110.914 99 -18.0543 109.498 6 235
1947070S16119 1947 23 SI WA NOT_NAMED 1947-03-14 00:00:00 TS -18.3344 109.698 main 602 602 _____PP_______ -1 -18.3948 110.870 99 -18.3085 109.124 8 240
1947070S16119 1947 23 SI WA NOT_NAMED 1947-03-14 01:00:00 TS -18.4008 109.498 975 bom main 611 611 _____PO_______ -1 -18.4131 110.857 99 -18.4000 109.000 975 11 246
1947070S16119 1947 23 SI WA NOT_NAMED 1947-03-14 03:00:00 TS -18.5621 109.158 main 621 621 _____PP_______ -1 -18.4485 110.833 99 -18.5932 108.751 11 241
1947070S16119 1947 23 SI WA NOT_NAMED 1947-03-14 06:00:00 TS -18.8611 108.637 main 655 655 _____OP_______ -1 -18.5000 110.800 99 9.90000 -18.9067 108.379 13 238
1947070S16119 1947 23 SI WA NOT_NAMED 1947-03-14 09:00:00 TS -19.2473 107.994 main 693 688 ______P_______ -1 99 -19.2449 108.006 12 232
1947070S16119 1947 23 SI WA NOT_NAMED 1947-03-14 12:00:00 TS -19.6094 107.620 main 706 701 ______P_______ -1 99 -19.6038 107.632 10 224
1947070S16119 1947 23 SI WA NOT_NAMED 1947-03-14 15:00:00 TS -19.9882 107.245 main 723 719 ______P_______ -1 99 -19.9795 107.258 10 222
1947070S16119 1947 23 SI WA NOT_NAMED 1947-03-14 18:00:00 TS -20.3780 106.871 main 735 735 ______P_______ -1 99 -20.3678 106.882 11 222
1947070S16119 1947 23 SI WA NOT_NAMED 1947-03-14 21:00:00 TS -20.7764 106.495 main 760 760 ______P_______ -1 99 -20.7647 106.505 11 221
1947070S16119 1947 23 SI WA NOT_NAMED 1947-03-15 00:00:00 TS -21.1773 106.118 main 789 789 ______P_______ -1 99 -21.1660 106.127 11 221
1947070S16119 1947 23 SI WA NOT_NAMED 1947-03-15 01:00:00 NR -21.3000 106.000 1004 bom main 796 ______O_______ -1 99 -21.3000 106.000 1004 10 223

About IBTrACS Database

This database is a web-friendly format of International Best Track Archive for Climate Stewardship (IBTrACS), a global best track data archive curated by NOAA dating back to 1842.

Updated: 2021-11-26